sensor_id;sensor_type;location;lat;lon;timestamp;P1;durP1;ratioP1;P2;durP2;ratioP2
60336;SDS011;46978;50.288;28.624;2023-02-15T00:00:16;5.48;;;2.51;;
60336;SDS011;46978;50.288;28.624;2023-02-15T00:01:19;7.17;;;2.65;;
60336;SDS011;46978;50.288;28.624;2023-02-15T00:02:20;5.29;;;2.13;;
60336;SDS011;46978;50.288;28.624;2023-02-15T00:03:22;5.50;;;2.46;;
60336;SDS011;46978;50.288;28.624;2023-02-15T00:04:24;4.41;;;2.36;;
60336;SDS011;46978;50.288;28.624;2023-02-15T00:05:26;4.00;;;2.37;;
60336;SDS011;46978;50.288;28.624;2023-02-15T00:06:28;7.50;;;2.54;;
60336;SDS011;46978;50.288;28.624;2023-02-15T00:07:30;5.47;;;2.40;;
60336;SDS011;46978;50.288;28.624;2023-02-15T00:08:32;4.11;;;2.01;;
60336;SDS011;46978;50.288;28.624;2023-02-15T00:09:33;6.39;;;2.53;;
60336;SDS011;46978;50.288;28.624;2023-02-15T00:10:35;5.80;;;2.56;;
60336;SDS011;46978;50.288;28.624;2023-02-15T00:11:37;7.04;;;2.78;;
60336;SDS011;46978;50.288;28.624;2023-02-15T00:12:39;5.83;;;2.77;;
60336;SDS011;46978;50.288;28.624;2023-02-15T00:13:41;5.10;;;2.61;;
60336;SDS011;46978;50.288;28.624;2023-02-15T00:14:43;5.70;;;2.91;;
60336;SDS011;46978;50.288;28.624;2023-02-15T00:15:45;6.28;;;3.09;;
60336;SDS011;46978;50.288;28.624;2023-02-15T00:16:47;7.08;;;2.89;;
60336;SDS011;46978;50.288;28.624;2023-02-15T00:17:50;7.51;;;3.05;;
60336;SDS011;46978;50.288;28.624;2023-02-15T00:18:51;5.31;;;3.03;;
60336;SDS011;46978;50.288;28.624;2023-02-15T00:19:53;7.97;;;3.26;;
60336;SDS011;46978;50.288;28.624;2023-02-15T00:20:55;7.15;;;3.21;;
60336;SDS011;46978;50.288;28.624;2023-02-15T00:21:57;7.17;;;3.11;;
60336;SDS011;46978;50.288;28.624;2023-02-15T00:22:58;7.44;;;3.84;;
60336;SDS011;46978;50.288;28.624;2023-02-15T00:24:01;7.34;;;3.40;;
60336;SDS011;46978;50.288;28.624;2023-02-15T00:25:04;7.77;;;3.44;;
60336;SDS011;46978;50.288;28.624;2023-02-15T00:26:11;8.13;;;3.03;;
60336;SDS011;46978;50.288;28.624;2023-02-15T00:27:11;7.74;;;3.01;;
60336;SDS011;46978;50.288;28.624;2023-02-15T00:28:13;6.58;;;3.31;;
60336;SDS011;46978;50.288;28.624;2023-02-15T00:29:15;8.12;;;4.30;;
60336;SDS011;46978;50.288;28.624;2023-02-15T00:30:18;7.37;;;3.30;;
60336;SDS011;46978;50.288;28.624;2023-02-15T00:31:20;7.94;;;3.11;;
60336;SDS011;46978;50.288;28.624;2023-02-15T00:32:22;6.53;;;2.81;;
60336;SDS011;46978;50.288;28.624;2023-02-15T00:33:23;8.16;;;3.46;;
60336;SDS011;46978;50.288;28.624;2023-02-15T00:34:26;6.17;;;3.42;;
60336;SDS011;46978;50.288;28.624;2023-02-15T00:35:28;6.74;;;3.39;;
60336;SDS011;46978;50.288;28.624;2023-02-15T00:36:30;11.69;;;3.86;;
60336;SDS011;46978;50.288;28.624;2023-02-15T00:37:32;8.18;;;3.54;;
60336;SDS011;46978;50.288;28.624;2023-02-15T00:38:34;9.51;;;3.79;;
60336;SDS011;46978;50.288;28.624;2023-02-15T00:39:36;9.61;;;3.54;;
60336;SDS011;46978;50.288;28.624;2023-02-15T00:40:38;9.48;;;3.38;;
60336;SDS011;46978;50.288;28.624;2023-02-15T00:41:40;7.64;;;3.41;;
60336;SDS011;46978;50.288;28.624;2023-02-15T00:42:42;8.02;;;3.43;;
60336;SDS011;46978;50.288;28.624;2023-02-15T00:43:43;7.34;;;2.98;;
60336;SDS011;46978;50.288;28.624;2023-02-15T00:44:45;5.61;;;2.75;;
60336;SDS011;46978;50.288;28.624;2023-02-15T00:45:46;6.58;;;2.69;;
60336;SDS011;46978;50.288;28.624;2023-02-15T00:46:49;6.33;;;2.21;;
60336;SDS011;46978;50.288;28.624;2023-02-15T00:47:50;5.03;;;2.11;;
60336;SDS011;46978;50.288;28.624;2023-02-15T00:48:52;5.16;;;2.44;;
60336;SDS011;46978;50.288;28.624;2023-02-15T00:49:53;6.10;;;2.59;;
60336;SDS011;46978;50.288;28.624;2023-02-15T00:50:56;6.75;;;2.48;;
60336;SDS011;46978;50.288;28.624;2023-02-15T00:52:00;5.12;;;2.12;;
60336;SDS011;46978;50.288;28.624;2023-02-15T00:53:01;4.46;;;2.51;;
60336;SDS011;46978;50.288;28.624;2023-02-15T00:54:03;5.96;;;2.29;;
60336;SDS011;46978;50.288;28.624;2023-02-15T00:55:05;4.08;;;2.01;;
60336;SDS011;46978;50.288;28.624;2023-02-15T00:56:08;5.58;;;2.16;;
60336;SDS011;46978;50.288;28.624;2023-02-15T00:57:09;6.06;;;2.64;;
60336;SDS011;46978;50.288;28.624;2023-02-15T00:58:11;5.51;;;2.44;;
60336;SDS011;46978;50.288;28.624;2023-02-15T00:59:14;6.31;;;2.26;;
60336;SDS011;46978;50.288;28.624;2023-02-15T01:00:16;5.16;;;2.63;;
60336;SDS011;46978;50.288;28.624;2023-02-15T01:01:18;5.60;;;2.33;;
60336;SDS011;46978;50.288;28.624;2023-02-15T01:02:21;6.05;;;2.49;;
60336;SDS011;46978;50.288;28.624;2023-02-15T01:03:23;4.09;;;2.09;;
60336;SDS011;46978;50.288;28.624;2023-02-15T01:04:24;6.40;;;2.17;;
60336;SDS011;46978;50.288;28.624;2023-02-15T01:05:26;5.67;;;2.45;;
60336;SDS011;46978;50.288;28.624;2023-02-15T01:06:28;8.24;;;2.66;;
60336;SDS011;46978;50.288;28.624;2023-02-15T01:07:30;5.19;;;2.30;;
60336;SDS011;46978;50.288;28.624;2023-02-15T01:08:31;5.09;;;2.18;;
60336;SDS011;46978;50.288;28.624;2023-02-15T01:09:33;5.16;;;2.62;;
60336;SDS011;46978;50.288;28.624;2023-02-15T01:10:35;6.02;;;2.14;;
60336;SDS011;46978;50.288;28.624;2023-02-15T01:11:37;5.07;;;2.41;;
60336;SDS011;46978;50.288;28.624;2023-02-15T01:12:38;4.74;;;2.19;;
60336;SDS011;46978;50.288;28.624;2023-02-15T01:13:40;5.64;;;2.19;;
60336;SDS011;46978;50.288;28.624;2023-02-15T01:14:42;6.07;;;2.83;;
60336;SDS011;46978;50.288;28.624;2023-02-15T01:15:44;4.54;;;2.15;;
60336;SDS011;46978;50.288;28.624;2023-02-15T01:16:46;5.42;;;2.37;;
60336;SDS011;46978;50.288;28.624;2023-02-15T01:17:47;5.44;;;2.38;;
60336;SDS011;46978;50.288;28.624;2023-02-15T01:18:49;7.41;;;2.60;;
60336;SDS011;46978;50.288;28.624;2023-02-15T01:19:51;5.01;;;2.36;;
60336;SDS011;46978;50.288;28.624;2023-02-15T01:20:53;5.39;;;2.61;;
60336;SDS011;46978;50.288;28.624;2023-02-15T01:21:55;5.52;;;2.42;;
60336;SDS011;46978;50.288;28.624;2023-02-15T01:22:57;6.09;;;2.53;;
60336;SDS011;46978;50.288;28.624;2023-02-15T01:23:59;6.33;;;2.62;;
60336;SDS011;46978;50.288;28.624;2023-02-15T01:25:01;5.75;;;2.83;;
60336;SDS011;46978;50.288;28.624;2023-02-15T01:26:03;8.29;;;3.25;;
60336;SDS011;46978;50.288;28.624;2023-02-15T01:27:05;9.41;;;4.45;;
60336;SDS011;46978;50.288;28.624;2023-02-15T01:28:07;12.91;;;4.47;;
60336;SDS011;46978;50.288;28.624;2023-02-15T01:29:08;11.43;;;4.46;;
60336;SDS011;46978;50.288;28.624;2023-02-15T01:30:11;11.01;;;4.75;;
60336;SDS011;46978;50.288;28.624;2023-02-15T01:31:14;11.49;;;5.41;;
60336;SDS011;46978;50.288;28.624;2023-02-15T01:32:18;13.65;;;5.40;;
60336;SDS011;46978;50.288;28.624;2023-02-15T01:33:19;13.91;;;5.74;;
60336;SDS011;46978;50.288;28.624;2023-02-15T01:34:21;12.94;;;5.89;;
60336;SDS011;46978;50.288;28.624;2023-02-15T01:35:23;14.28;;;6.13;;
60336;SDS011;46978;50.288;28.624;2023-02-15T01:36:25;10.85;;;4.67;;
60336;SDS011;46978;50.288;28.624;2023-02-15T01:37:27;10.29;;;4.52;;
60336;SDS011;46978;50.288;28.624;2023-02-15T01:38:31;8.28;;;3.98;;
60336;SDS011;46978;50.288;28.624;2023-02-15T01:39:33;9.71;;;4.49;;
60336;SDS011;46978;50.288;28.624;2023-02-15T01:40:34;10.93;;;4.45;;
60336;SDS011;46978;50.288;28.624;2023-02-15T01:41:36;7.71;;;4.15;;
60336;SDS011;46978;50.288;28.624;2023-02-15T01:42:38;7.37;;;3.04;;
60336;SDS011;46978;50.288;28.624;2023-02-15T01:43:44;8.11;;;3.55;;
60336;SDS011;46978;50.288;28.624;2023-02-15T01:44:55;8.06;;;3.73;;
60336;SDS011;46978;50.288;28.624;2023-02-15T01:45:58;6.80;;;3.02;;
60336;SDS011;46978;50.288;28.624;2023-02-15T01:47:00;5.49;;;2.72;;
60336;SDS011;46978;50.288;28.624;2023-02-15T01:48:08;5.71;;;2.64;;
60336;SDS011;46978;50.288;28.624;2023-02-15T01:49:23;6.69;;;2.28;;
60336;SDS011;46978;50.288;28.624;2023-02-15T01:50:29;5.84;;;1.94;;
60336;SDS011;46978;50.288;28.624;2023-02-15T01:51:36;4.80;;;2.39;;
60336;SDS011;46978;50.288;28.624;2023-02-15T01:52:43;4.89;;;2.78;;
60336;SDS011;46978;50.288;28.624;2023-02-15T01:54:02;5.67;;;2.88;;
60336;SDS011;46978;50.288;28.624;2023-02-15T01:55:07;5.03;;;2.25;;
60336;SDS011;46978;50.288;28.624;2023-02-15T01:56:11;4.59;;;2.14;;
60336;SDS011;46978;50.288;28.624;2023-02-15T01:57:18;4.92;;;2.09;;
60336;SDS011;46978;50.288;28.624;2023-02-15T01:58:23;5.34;;;2.65;;
60336;SDS011;46978;50.288;28.624;2023-02-15T01:59:27;5.35;;;2.15;;
60336;SDS011;46978;50.288;28.624;2023-02-15T02:00:31;5.42;;;2.63;;
60336;SDS011;46978;50.288;28.624;2023-02-15T02:01:35;6.58;;;2.26;;
60336;SDS011;46978;50.288;28.624;2023-02-15T02:02:37;5.17;;;2.25;;
60336;SDS011;46978;50.288;28.624;2023-02-15T02:05:10;5.84;;;2.71;;
60336;SDS011;46978;50.288;28.624;2023-02-15T02:06:12;4.19;;;1.99;;
60336;SDS011;46978;50.288;28.624;2023-02-15T02:07:15;5.18;;;2.24;;
60336;SDS011;46978;50.288;28.624;2023-02-15T02:08:19;4.59;;;2.33;;
60336;SDS011;46978;50.288;28.624;2023-02-15T02:09:21;6.20;;;2.45;;
60336;SDS011;46978;50.288;28.624;2023-02-15T02:10:23;6.74;;;2.35;;
60336;SDS011;46978;50.288;28.624;2023-02-15T02:11:26;4.50;;;2.05;;
60336;SDS011;46978;50.288;28.624;2023-02-15T02:12:28;7.01;;;2.15;;
60336;SDS011;46978;50.288;28.624;2023-02-15T02:13:30;6.02;;;2.13;;
60336;SDS011;46978;50.288;28.624;2023-02-15T02:14:32;5.83;;;2.33;;
60336;SDS011;46978;50.288;28.624;2023-02-15T02:15:43;6.26;;;2.51;;
60336;SDS011;46978;50.288;28.624;2023-02-15T02:27:34;7.42;;;2.79;;
60336;SDS011;46978;50.288;28.624;2023-02-15T02:34:31;4.43;;;2.42;;
60336;SDS011;46978;50.288;28.624;2023-02-15T02:35:41;6.26;;;2.37;;
60336;SDS011;46978;50.288;28.624;2023-02-15T02:38:13;6.60;;;2.76;;
60336;SDS011;46978;50.288;28.624;2023-02-15T02:40:55;5.18;;;2.20;;
60336;SDS011;46978;50.288;28.624;2023-02-15T02:42:04;6.71;;;2.42;;
60336;SDS011;46978;50.288;28.624;2023-02-15T02:43:25;4.91;;;2.36;;
60336;SDS011;46978;50.288;28.624;2023-02-15T02:44:41;5.56;;;1.90;;
60336;SDS011;46978;50.288;28.624;2023-02-15T02:46:05;5.99;;;2.59;;
60336;SDS011;46978;50.288;28.624;2023-02-15T02:47:16;5.50;;;2.32;;
60336;SDS011;46978;50.288;28.624;2023-02-15T02:48:20;5.93;;;2.50;;
60336;SDS011;46978;50.288;28.624;2023-02-15T02:49:31;5.72;;;2.59;;
60336;SDS011;46978;50.288;28.624;2023-02-15T02:50:38;5.32;;;2.11;;
60336;SDS011;46978;50.288;28.624;2023-02-15T02:51:40;6.64;;;2.08;;
60336;SDS011;46978;50.288;28.624;2023-02-15T02:53:51;5.18;;;2.26;;
60336;SDS011;46978;50.288;28.624;2023-02-15T02:54:55;6.08;;;2.22;;
60336;SDS011;46978;50.288;28.624;2023-02-15T02:56:13;6.07;;;2.91;;
60336;SDS011;46978;50.288;28.624;2023-02-15T02:57:27;6.10;;;2.52;;
60336;SDS011;46978;50.288;28.624;2023-02-15T02:59:43;6.93;;;3.13;;
60336;SDS011;46978;50.288;28.624;2023-02-15T03:00:55;6.92;;;2.87;;
60336;SDS011;46978;50.288;28.624;2023-02-15T03:02:20;7.92;;;3.45;;
60336;SDS011;46978;50.288;28.624;2023-02-15T03:03:23;8.89;;;3.76;;
60336;SDS011;46978;50.288;28.624;2023-02-15T03:04:32;10.31;;;3.92;;
60336;SDS011;46978;50.288;28.624;2023-02-15T03:05:37;8.02;;;3.88;;
60336;SDS011;46978;50.288;28.624;2023-02-15T03:06:45;6.51;;;2.87;;
60336;SDS011;46978;50.288;28.624;2023-02-15T03:07:50;6.19;;;3.10;;
60336;SDS011;46978;50.288;28.624;2023-02-15T03:08:56;6.63;;;2.88;;
60336;SDS011;46978;50.288;28.624;2023-02-15T03:10:00;6.32;;;2.50;;
60336;SDS011;46978;50.288;28.624;2023-02-15T03:11:04;5.86;;;2.46;;
60336;SDS011;46978;50.288;28.624;2023-02-15T03:12:12;5.05;;;2.20;;
60336;SDS011;46978;50.288;28.624;2023-02-15T03:13:12;5.74;;;2.65;;
60336;SDS011;46978;50.288;28.624;2023-02-15T03:14:14;5.55;;;2.87;;
60336;SDS011;46978;50.288;28.624;2023-02-15T03:15:20;5.24;;;2.63;;
60336;SDS011;46978;50.288;28.624;2023-02-15T03:16:24;5.28;;;2.91;;
60336;SDS011;46978;50.288;28.624;2023-02-15T03:17:28;6.65;;;2.84;;
60336;SDS011;46978;50.288;28.624;2023-02-15T03:18:39;6.66;;;3.33;;
60336;SDS011;46978;50.288;28.624;2023-02-15T03:19:41;6.89;;;3.13;;
60336;SDS011;46978;50.288;28.624;2023-02-15T03:20:46;7.83;;;4.22;;
60336;SDS011;46978;50.288;28.624;2023-02-15T03:21:51;8.26;;;4.72;;
60336;SDS011;46978;50.288;28.624;2023-02-15T03:23:03;8.49;;;4.61;;
60336;SDS011;46978;50.288;28.624;2023-02-15T03:24:11;9.42;;;4.77;;
60336;SDS011;46978;50.288;28.624;2023-02-15T03:26:23;5.80;;;3.42;;
60336;SDS011;46978;50.288;28.624;2023-02-15T03:27:31;7.47;;;3.36;;
60336;SDS011;46978;50.288;28.624;2023-02-15T03:28:38;6.65;;;3.52;;
60336;SDS011;46978;50.288;28.624;2023-02-15T03:29:41;7.27;;;3.82;;
60336;SDS011;46978;50.288;28.624;2023-02-15T03:30:45;9.10;;;3.54;;
60336;SDS011;46978;50.288;28.624;2023-02-15T03:31:51;6.88;;;3.33;;
60336;SDS011;46978;50.288;28.624;2023-02-15T03:32:55;6.52;;;3.26;;
60336;SDS011;46978;50.288;28.624;2023-02-15T03:34:00;7.94;;;3.02;;
60336;SDS011;46978;50.288;28.624;2023-02-15T03:35:05;6.71;;;3.18;;
60336;SDS011;46978;50.288;28.624;2023-02-15T03:36:09;7.21;;;3.11;;
60336;SDS011;46978;50.288;28.624;2023-02-15T03:39:59;5.96;;;3.17;;
60336;SDS011;46978;50.288;28.624;2023-02-15T03:41:04;4.67;;;2.59;;
60336;SDS011;46978;50.288;28.624;2023-02-15T03:42:10;7.74;;;2.92;;
60336;SDS011;46978;50.288;28.624;2023-02-15T03:43:22;5.32;;;2.66;;
60336;SDS011;46978;50.288;28.624;2023-02-15T03:45:32;6.53;;;2.76;;
60336;SDS011;46978;50.288;28.624;2023-02-15T03:46:42;6.58;;;2.84;;
60336;SDS011;46978;50.288;28.624;2023-02-15T03:47:59;5.64;;;2.57;;
60336;SDS011;46978;50.288;28.624;2023-02-15T03:49:07;6.41;;;2.66;;
60336;SDS011;46978;50.288;28.624;2023-02-15T03:50:31;4.81;;;2.69;;
60336;SDS011;46978;50.288;28.624;2023-02-15T03:51:28;5.47;;;2.64;;
60336;SDS011;46978;50.288;28.624;2023-02-15T03:52:31;8.96;;;3.51;;
60336;SDS011;46978;50.288;28.624;2023-02-15T03:53:36;7.74;;;3.16;;
60336;SDS011;46978;50.288;28.624;2023-02-15T03:54:40;7.43;;;3.31;;
60336;SDS011;46978;50.288;28.624;2023-02-15T03:55:45;7.82;;;3.39;;
60336;SDS011;46978;50.288;28.624;2023-02-15T03:56:50;49.54;;;22.62;;
60336;SDS011;46978;50.288;28.624;2023-02-15T03:57:52;102.76;;;45.07;;
60336;SDS011;46978;50.288;28.624;2023-02-15T03:58:54;70.86;;;37.33;;
60336;SDS011;46978;50.288;28.624;2023-02-15T03:59:56;47.14;;;25.96;;
60336;SDS011;46978;50.288;28.624;2023-02-15T04:00:59;94.85;;;66.56;;
60336;SDS011;46978;50.288;28.624;2023-02-15T04:02:18;12.81;;;5.81;;
60336;SDS011;46978;50.288;28.624;2023-02-15T04:03:31;32.74;;;22.64;;
60336;SDS011;46978;50.288;28.624;2023-02-15T04:04:36;56.41;;;40.97;;
60336;SDS011;46978;50.288;28.624;2023-02-15T04:05:40;46.58;;;33.93;;
60336;SDS011;46978;50.288;28.624;2023-02-15T04:06:43;87.84;;;65.22;;
60336;SDS011;46978;50.288;28.624;2023-02-15T04:07:45;49.74;;;37.07;;
60336;SDS011;46978;50.288;28.624;2023-02-15T04:08:47;90.42;;;69.13;;
60336;SDS011;46978;50.288;28.624;2023-02-15T04:09:48;25.26;;;18.64;;
60336;SDS011;46978;50.288;28.624;2023-02-15T04:10:50;20.16;;;15.90;;
60336;SDS011;46978;50.288;28.624;2023-02-15T04:11:52;28.84;;;25.47;;
60336;SDS011;46978;50.288;28.624;2023-02-15T04:12:53;15.98;;;9.89;;
60336;SDS011;46978;50.288;28.624;2023-02-15T04:13:55;17.04;;;12.09;;
60336;SDS011;46978;50.288;28.624;2023-02-15T04:14:56;63.03;;;34.51;;
60336;SDS011;46978;50.288;28.624;2023-02-15T04:15:58;44.47;;;23.64;;
60336;SDS011;46978;50.288;28.624;2023-02-15T04:17:00;47.44;;;27.94;;
60336;SDS011;46978;50.288;28.624;2023-02-15T04:18:02;30.53;;;17.39;;
60336;SDS011;46978;50.288;28.624;2023-02-15T04:19:04;34.02;;;19.53;;
60336;SDS011;46978;50.288;28.624;2023-02-15T04:20:07;38.33;;;23.49;;
60336;SDS011;46978;50.288;28.624;2023-02-15T04:21:10;22.24;;;13.04;;
60336;SDS011;46978;50.288;28.624;2023-02-15T04:22:11;24.61;;;10.56;;
60336;SDS011;46978;50.288;28.624;2023-02-15T04:23:13;24.89;;;12.68;;
60336;SDS011;46978;50.288;28.624;2023-02-15T04:24:15;19.66;;;9.78;;
60336;SDS011;46978;50.288;28.624;2023-02-15T04:25:17;23.67;;;12.65;;
60336;SDS011;46978;50.288;28.624;2023-02-15T04:26:19;14.97;;;6.79;;
60336;SDS011;46978;50.288;28.624;2023-02-15T04:27:21;15.47;;;7.94;;
60336;SDS011;46978;50.288;28.624;2023-02-15T04:28:22;13.51;;;8.79;;
60336;SDS011;46978;50.288;28.624;2023-02-15T04:29:24;14.59;;;8.05;;
60336;SDS011;46978;50.288;28.624;2023-02-15T04:30:27;12.59;;;6.85;;
60336;SDS011;46978;50.288;28.624;2023-02-15T04:31:29;19.10;;;12.42;;
60336;SDS011;46978;50.288;28.624;2023-02-15T04:32:30;14.08;;;9.56;;
60336;SDS011;46978;50.288;28.624;2023-02-15T04:33:32;11.71;;;9.01;;
60336;SDS011;46978;50.288;28.624;2023-02-15T04:34:34;12.31;;;8.25;;
60336;SDS011;46978;50.288;28.624;2023-02-15T04:35:36;9.63;;;5.91;;
60336;SDS011;46978;50.288;28.624;2023-02-15T04:36:38;8.29;;;4.87;;
60336;SDS011;46978;50.288;28.624;2023-02-15T04:37:40;7.53;;;4.43;;
60336;SDS011;46978;50.288;28.624;2023-02-15T04:38:43;8.00;;;4.71;;
60336;SDS011;46978;50.288;28.624;2023-02-15T04:39:44;7.16;;;4.39;;
60336;SDS011;46978;50.288;28.624;2023-02-15T04:40:49;8.49;;;4.39;;
60336;SDS011;46978;50.288;28.624;2023-02-15T04:41:50;7.84;;;3.95;;
60336;SDS011;46978;50.288;28.624;2023-02-15T04:42:52;7.30;;;3.77;;
60336;SDS011;46978;50.288;28.624;2023-02-15T04:43:54;10.89;;;4.74;;
60336;SDS011;46978;50.288;28.624;2023-02-15T04:44:55;8.63;;;4.37;;
60336;SDS011;46978;50.288;28.624;2023-02-15T04:45:57;10.53;;;4.59;;
60336;SDS011;46978;50.288;28.624;2023-02-15T04:46:59;9.66;;;4.49;;
60336;SDS011;46978;50.288;28.624;2023-02-15T04:48:00;13.30;;;6.01;;
60336;SDS011;46978;50.288;28.624;2023-02-15T04:49:02;11.62;;;5.30;;
60336;SDS011;46978;50.288;28.624;2023-02-15T04:50:05;13.01;;;6.22;;
60336;SDS011;46978;50.288;28.624;2023-02-15T04:51:08;12.12;;;5.53;;
60336;SDS011;46978;50.288;28.624;2023-02-15T04:52:09;10.89;;;5.34;;
60336;SDS011;46978;50.288;28.624;2023-02-15T04:53:11;11.23;;;4.93;;
60336;SDS011;46978;50.288;28.624;2023-02-15T04:54:13;11.46;;;4.97;;
60336;SDS011;46978;50.288;28.624;2023-02-15T04:55:15;9.31;;;3.82;;
60336;SDS011;46978;50.288;28.624;2023-02-15T04:56:18;12.93;;;6.49;;
60336;SDS011;46978;50.288;28.624;2023-02-15T04:57:20;14.21;;;7.02;;
60336;SDS011;46978;50.288;28.624;2023-02-15T04:58:22;10.01;;;5.29;;
60336;SDS011;46978;50.288;28.624;2023-02-15T04:59:23;9.86;;;5.35;;
60336;SDS011;46978;50.288;28.624;2023-02-15T05:00:25;6.34;;;3.45;;
60336;SDS011;46978;50.288;28.624;2023-02-15T05:01:27;7.57;;;3.64;;
60336;SDS011;46978;50.288;28.624;2023-02-15T05:02:29;8.36;;;4.13;;
60336;SDS011;46978;50.288;28.624;2023-02-15T05:03:30;9.79;;;4.71;;
60336;SDS011;46978;50.288;28.624;2023-02-15T05:04:32;6.81;;;4.04;;
60336;SDS011;46978;50.288;28.624;2023-02-15T05:05:34;9.34;;;4.67;;
60336;SDS011;46978;50.288;28.624;2023-02-15T05:06:35;7.31;;;3.46;;
60336;SDS011;46978;50.288;28.624;2023-02-15T05:07:37;10.89;;;5.37;;
60336;SDS011;46978;50.288;28.624;2023-02-15T05:08:39;9.76;;;4.06;;
60336;SDS011;46978;50.288;28.624;2023-02-15T05:09:40;11.39;;;6.81;;
60336;SDS011;46978;50.288;28.624;2023-02-15T05:10:42;8.12;;;4.63;;
60336;SDS011;46978;50.288;28.624;2023-02-15T05:11:44;11.23;;;5.95;;
60336;SDS011;46978;50.288;28.624;2023-02-15T05:12:46;10.47;;;5.13;;
60336;SDS011;46978;50.288;28.624;2023-02-15T05:13:48;9.05;;;4.45;;
60336;SDS011;46978;50.288;28.624;2023-02-15T05:14:49;9.79;;;4.51;;
60336;SDS011;46978;50.288;28.624;2023-02-15T05:15:51;9.54;;;4.71;;
60336;SDS011;46978;50.288;28.624;2023-02-15T05:16:53;12.53;;;3.59;;
60336;SDS011;46978;50.288;28.624;2023-02-15T05:17:55;11.23;;;5.90;;
60336;SDS011;46978;50.288;28.624;2023-02-15T05:18:57;8.86;;;5.46;;
60336;SDS011;46978;50.288;28.624;2023-02-15T05:19:58;9.19;;;4.59;;
60336;SDS011;46978;50.288;28.624;2023-02-15T05:21:00;8.36;;;4.91;;
60336;SDS011;46978;50.288;28.624;2023-02-15T05:22:02;11.19;;;6.28;;
60336;SDS011;46978;50.288;28.624;2023-02-15T05:23:03;9.11;;;4.80;;
60336;SDS011;46978;50.288;28.624;2023-02-15T05:24:05;10.10;;;5.16;;
60336;SDS011;46978;50.288;28.624;2023-02-15T05:25:08;10.28;;;4.14;;
60336;SDS011;46978;50.288;28.624;2023-02-15T05:26:18;9.59;;;4.60;;
60336;SDS011;46978;50.288;28.624;2023-02-15T05:27:21;8.58;;;4.71;;
60336;SDS011;46978;50.288;28.624;2023-02-15T05:28:23;7.84;;;4.01;;
60336;SDS011;46978;50.288;28.624;2023-02-15T05:29:27;7.48;;;4.04;;
60336;SDS011;46978;50.288;28.624;2023-02-15T05:30:30;6.00;;;3.37;;
60336;SDS011;46978;50.288;28.624;2023-02-15T05:31:32;6.89;;;3.96;;
60336;SDS011;46978;50.288;28.624;2023-02-15T05:32:34;6.41;;;3.45;;
60336;SDS011;46978;50.288;28.624;2023-02-15T05:33:36;6.41;;;3.51;;
60336;SDS011;46978;50.288;28.624;2023-02-15T05:34:37;6.99;;;3.26;;
60336;SDS011;46978;50.288;28.624;2023-02-15T05:35:39;8.99;;;4.03;;
60336;SDS011;46978;50.288;28.624;2023-02-15T05:36:41;7.49;;;4.27;;
60336;SDS011;46978;50.288;28.624;2023-02-15T05:37:43;9.45;;;5.03;;
60336;SDS011;46978;50.288;28.624;2023-02-15T05:38:45;8.13;;;4.57;;
60336;SDS011;46978;50.288;28.624;2023-02-15T05:39:46;7.08;;;4.21;;
60336;SDS011;46978;50.288;28.624;2023-02-15T05:40:48;6.97;;;3.78;;
60336;SDS011;46978;50.288;28.624;2023-02-15T05:41:51;6.51;;;2.84;;
60336;SDS011;46978;50.288;28.624;2023-02-15T05:42:52;10.87;;;5.73;;
60336;SDS011;46978;50.288;28.624;2023-02-15T05:43:54;13.36;;;6.30;;
60336;SDS011;46978;50.288;28.624;2023-02-15T05:44:57;20.21;;;8.11;;
60336;SDS011;46978;50.288;28.624;2023-02-15T05:45:58;13.68;;;6.49;;
60336;SDS011;46978;50.288;28.624;2023-02-15T05:47:00;15.61;;;7.19;;
60336;SDS011;46978;50.288;28.624;2023-02-15T05:48:02;21.72;;;10.17;;
60336;SDS011;46978;50.288;28.624;2023-02-15T05:49:04;32.06;;;12.93;;
60336;SDS011;46978;50.288;28.624;2023-02-15T05:50:06;28.69;;;12.90;;
60336;SDS011;46978;50.288;28.624;2023-02-15T05:51:10;24.47;;;10.20;;
60336;SDS011;46978;50.288;28.624;2023-02-15T05:52:13;29.69;;;12.87;;
60336;SDS011;46978;50.288;28.624;2023-02-15T05:53:15;27.79;;;11.56;;
60336;SDS011;46978;50.288;28.624;2023-02-15T05:54:16;28.29;;;12.60;;
60336;SDS011;46978;50.288;28.624;2023-02-15T05:55:18;26.01;;;9.15;;
60336;SDS011;46978;50.288;28.624;2023-02-15T05:56:20;17.96;;;7.55;;
60336;SDS011;46978;50.288;28.624;2023-02-15T05:57:22;18.35;;;8.66;;
60336;SDS011;46978;50.288;28.624;2023-02-15T05:58:24;19.26;;;9.09;;
60336;SDS011;46978;50.288;28.624;2023-02-15T05:59:27;19.99;;;10.02;;
60336;SDS011;46978;50.288;28.624;2023-02-15T06:00:29;23.35;;;9.39;;
60336;SDS011;46978;50.288;28.624;2023-02-15T06:01:31;15.79;;;6.41;;
60336;SDS011;46978;50.288;28.624;2023-02-15T06:02:33;12.94;;;6.85;;
60336;SDS011;46978;50.288;28.624;2023-02-15T06:03:36;14.47;;;6.80;;
60336;SDS011;46978;50.288;28.624;2023-02-15T06:04:38;30.49;;;12.19;;
60336;SDS011;46978;50.288;28.624;2023-02-15T06:05:40;38.25;;;15.60;;
60336;SDS011;46978;50.288;28.624;2023-02-15T06:06:41;22.78;;;9.92;;
60336;SDS011;46978;50.288;28.624;2023-02-15T06:07:43;11.84;;;5.51;;
60336;SDS011;46978;50.288;28.624;2023-02-15T06:08:45;37.89;;;14.11;;
60336;SDS011;46978;50.288;28.624;2023-02-15T06:09:47;22.89;;;10.05;;
60336;SDS011;46978;50.288;28.624;2023-02-15T06:10:48;19.23;;;8.41;;
60336;SDS011;46978;50.288;28.624;2023-02-15T06:11:50;37.53;;;14.54;;
60336;SDS011;46978;50.288;28.624;2023-02-15T06:12:51;31.43;;;12.47;;
60336;SDS011;46978;50.288;28.624;2023-02-15T06:13:53;16.24;;;7.18;;
60336;SDS011;46978;50.288;28.624;2023-02-15T06:14:55;20.59;;;8.49;;
60336;SDS011;46978;50.288;28.624;2023-02-15T06:15:56;23.88;;;10.79;;
60336;SDS011;46978;50.288;28.624;2023-02-15T06:16:58;18.48;;;7.50;;
60336;SDS011;46978;50.288;28.624;2023-02-15T06:18:00;19.33;;;7.84;;
60336;SDS011;46978;50.288;28.624;2023-02-15T06:19:02;12.14;;;5.24;;
60336;SDS011;46978;50.288;28.624;2023-02-15T06:20:04;12.55;;;6.03;;
60336;SDS011;46978;50.288;28.624;2023-02-15T06:21:07;12.21;;;5.40;;
60336;SDS011;46978;50.288;28.624;2023-02-15T06:22:08;9.84;;;5.57;;
60336;SDS011;46978;50.288;28.624;2023-02-15T06:23:10;8.38;;;3.99;;
60336;SDS011;46978;50.288;28.624;2023-02-15T06:24:12;11.09;;;5.45;;
60336;SDS011;46978;50.288;28.624;2023-02-15T06:25:14;21.29;;;7.90;;
60336;SDS011;46978;50.288;28.624;2023-02-15T06:26:16;32.10;;;12.44;;
60336;SDS011;46978;50.288;28.624;2023-02-15T06:27:18;79.43;;;26.13;;
60336;SDS011;46978;50.288;28.624;2023-02-15T06:28:20;32.32;;;12.62;;
60336;SDS011;46978;50.288;28.624;2023-02-15T06:29:21;30.65;;;13.59;;
60336;SDS011;46978;50.288;28.624;2023-02-15T06:30:23;28.36;;;14.92;;
60336;SDS011;46978;50.288;28.624;2023-02-15T06:31:25;16.27;;;7.77;;
60336;SDS011;46978;50.288;28.624;2023-02-15T06:32:26;25.36;;;11.84;;
60336;SDS011;46978;50.288;28.624;2023-02-15T06:33:28;26.07;;;10.39;;
60336;SDS011;46978;50.288;28.624;2023-02-15T06:34:30;12.65;;;5.41;;
60336;SDS011;46978;50.288;28.624;2023-02-15T06:35:32;24.33;;;10.17;;
60336;SDS011;46978;50.288;28.624;2023-02-15T06:36:34;34.41;;;13.91;;
60336;SDS011;46978;50.288;28.624;2023-02-15T06:37:36;25.25;;;13.41;;
60336;SDS011;46978;50.288;28.624;2023-02-15T06:38:37;31.13;;;15.89;;
60336;SDS011;46978;50.288;28.624;2023-02-15T06:39:39;15.95;;;7.71;;
60336;SDS011;46978;50.288;28.624;2023-02-15T06:40:41;26.37;;;12.59;;
60336;SDS011;46978;50.288;28.624;2023-02-15T06:41:42;44.61;;;22.09;;